sensor_id;sensor_type;location;lat;lon;timestamp;P1;durP1;ratioP1;P2;durP2;ratioP2
20008;SDS011;10165;42.662;23.260;2022-10-17T00:02:14;6.10;;;4.20;;
20008;SDS011;10165;42.662;23.260;2022-10-17T00:04:41;5.53;;;4.43;;
20008;SDS011;10165;42.662;23.260;2022-10-17T00:07:07;5.77;;;4.40;;
20008;SDS011;10165;42.662;23.260;2022-10-17T00:09:34;5.87;;;4.07;;
20008;SDS011;10165;42.662;23.260;2022-10-17T00:12:01;11.20;;;4.33;;
20008;SDS011;10165;42.662;23.260;2022-10-17T00:14:27;7.30;;;4.40;;
20008;SDS011;10165;42.662;23.260;2022-10-17T00:16:54;9.37;;;4.00;;
20008;SDS011;10165;42.662;23.260;2022-10-17T00:19:21;5.13;;;3.97;;
20008;SDS011;10165;42.662;23.260;2022-10-17T00:21:48;7.00;;;4.53;;
20008;SDS011;10165;42.662;23.260;2022-10-17T00:24:14;5.47;;;3.83;;
20008;SDS011;10165;42.662;23.260;2022-10-17T00:26:41;8.43;;;4.53;;
20008;SDS011;10165;42.662;23.260;2022-10-17T00:29:08;5.83;;;3.73;;
20008;SDS011;10165;42.662;23.260;2022-10-17T00:31:34;7.33;;;4.07;;
20008;SDS011;10165;42.662;23.260;2022-10-17T00:34:01;6.47;;;3.70;;
20008;SDS011;10165;42.662;23.260;2022-10-17T00:36:27;5.53;;;3.80;;
20008;SDS011;10165;42.662;23.260;2022-10-17T00:38:55;5.17;;;3.90;;
20008;SDS011;10165;42.662;23.260;2022-10-17T00:41:25;5.43;;;3.80;;
20008;SDS011;10165;42.662;23.260;2022-10-17T00:46:24;5.23;;;3.80;;
20008;SDS011;10165;42.662;23.260;2022-10-17T00:48:53;4.60;;;3.83;;
20008;SDS011;10165;42.662;23.260;2022-10-17T00:51:27;4.43;;;3.87;;
20008;SDS011;10165;42.662;23.260;2022-10-17T00:53:59;4.63;;;3.80;;
20008;SDS011;10165;42.662;23.260;2022-10-17T00:56:28;5.50;;;3.77;;
20008;SDS011;10165;42.662;23.260;2022-10-17T00:58:55;4.83;;;3.67;;
20008;SDS011;10165;42.662;23.260;2022-10-17T01:01:22;5.13;;;3.77;;
20008;SDS011;10165;42.662;23.260;2022-10-17T01:03:49;5.33;;;3.73;;
20008;SDS011;10165;42.662;23.260;2022-10-17T01:06:16;5.67;;;3.63;;
20008;SDS011;10165;42.662;23.260;2022-10-17T01:08:42;9.70;;;4.60;;
20008;SDS011;10165;42.662;23.260;2022-10-17T01:13:50;7.77;;;4.50;;
20008;SDS011;10165;42.662;23.260;2022-10-17T01:16:35;6.10;;;4.53;;
20008;SDS011;10165;42.662;23.260;2022-10-17T01:27:30;7.03;;;4.40;;
20008;SDS011;10165;42.662;23.260;2022-10-17T01:33:13;7.50;;;4.57;;
20008;SDS011;10165;42.662;23.260;2022-10-17T01:38:35;8.33;;;4.40;;
20008;SDS011;10165;42.662;23.260;2022-10-17T01:41:15;5.53;;;4.00;;
20008;SDS011;10165;42.662;23.260;2022-10-17T01:43:49;7.67;;;4.37;;
20008;SDS011;10165;42.662;23.260;2022-10-17T01:48:52;7.83;;;4.30;;
20008;SDS011;10165;42.662;23.260;2022-10-17T01:51:26;6.17;;;4.27;;
20008;SDS011;10165;42.662;23.260;2022-10-17T01:54:01;7.60;;;4.90;;
20008;SDS011;10165;42.662;23.260;2022-10-17T01:56:29;5.43;;;3.90;;
20008;SDS011;10165;42.662;23.260;2022-10-17T01:58:59;6.30;;;4.30;;
20008;SDS011;10165;42.662;23.260;2022-10-17T02:01:31;6.63;;;4.20;;
20008;SDS011;10165;42.662;23.260;2022-10-17T02:04:02;5.53;;;3.87;;
20008;SDS011;10165;42.662;23.260;2022-10-17T02:06:34;8.30;;;4.27;;
20008;SDS011;10165;42.662;23.260;2022-10-17T02:09:14;6.90;;;3.90;;
20008;SDS011;10165;42.662;23.260;2022-10-17T02:11:42;5.80;;;3.87;;
20008;SDS011;10165;42.662;23.260;2022-10-17T02:22:56;6.00;;;3.83;;
20008;SDS011;10165;42.662;23.260;2022-10-17T02:28:25;4.57;;;3.70;;
20008;SDS011;10165;42.662;23.260;2022-10-17T02:33:47;6.43;;;4.50;;
20008;SDS011;10165;42.662;23.260;2022-10-17T02:36:21;5.40;;;4.07;;
20008;SDS011;10165;42.662;23.260;2022-10-17T02:38:51;6.13;;;5.00;;
20008;SDS011;10165;42.662;23.260;2022-10-17T02:41:19;7.70;;;4.73;;
20008;SDS011;10165;42.662;23.260;2022-10-17T02:43:48;9.80;;;4.77;;
20008;SDS011;10165;42.662;23.260;2022-10-17T02:46:18;7.67;;;4.27;;
20008;SDS011;10165;42.662;23.260;2022-10-17T02:49:09;8.00;;;4.73;;
20008;SDS011;10165;42.662;23.260;2022-10-17T02:51:49;5.73;;;4.00;;
20008;SDS011;10165;42.662;23.260;2022-10-17T02:57:03;6.23;;;3.40;;
20008;SDS011;10165;42.662;23.260;2022-10-17T02:59:35;6.20;;;3.90;;
20008;SDS011;10165;42.662;23.260;2022-10-17T03:02:04;9.37;;;4.30;;
20008;SDS011;10165;42.662;23.260;2022-10-17T03:04:32;3.83;;;3.10;;
20008;SDS011;10165;42.662;23.260;2022-10-17T03:07:02;5.90;;;4.20;;
20008;SDS011;10165;42.662;23.260;2022-10-17T03:09:29;7.30;;;3.53;;
20008;SDS011;10165;42.662;23.260;2022-10-17T03:11:55;7.97;;;3.80;;
20008;SDS011;10165;42.662;23.260;2022-10-17T03:14:22;5.17;;;3.90;;
20008;SDS011;10165;42.662;23.260;2022-10-17T03:16:49;7.53;;;4.03;;
20008;SDS011;10165;42.662;23.260;2022-10-17T03:19:15;5.33;;;3.50;;
20008;SDS011;10165;42.662;23.260;2022-10-17T03:21:42;5.63;;;3.63;;
20008;SDS011;10165;42.662;23.260;2022-10-17T03:24:09;6.90;;;4.00;;
20008;SDS011;10165;42.662;23.260;2022-10-17T03:26:35;7.07;;;4.10;;
20008;SDS011;10165;42.662;23.260;2022-10-17T03:29:02;7.57;;;4.13;;
20008;SDS011;10165;42.662;23.260;2022-10-17T03:31:29;7.93;;;4.57;;
20008;SDS011;10165;42.662;23.260;2022-10-17T03:33:56;8.57;;;4.37;;
20008;SDS011;10165;42.662;23.260;2022-10-17T03:36:22;6.77;;;4.33;;
20008;SDS011;10165;42.662;23.260;2022-10-17T03:38:52;8.77;;;4.53;;
20008;SDS011;10165;42.662;23.260;2022-10-17T03:41:19;5.80;;;4.10;;
20008;SDS011;10165;42.662;23.260;2022-10-17T03:43:45;6.83;;;4.80;;
20008;SDS011;10165;42.662;23.260;2022-10-17T03:46:12;5.83;;;4.07;;
20008;SDS011;10165;42.662;23.260;2022-10-17T03:48:38;6.23;;;4.17;;
20008;SDS011;10165;42.662;23.260;2022-10-17T03:51:06;6.70;;;4.60;;
20008;SDS011;10165;42.662;23.260;2022-10-17T03:53:34;11.63;;;4.03;;
20008;SDS011;10165;42.662;23.260;2022-10-17T03:56:35;6.40;;;3.67;;
20008;SDS011;10165;42.662;23.260;2022-10-17T03:58:54;6.97;;;4.17;;
20008;SDS011;10165;42.662;23.260;2022-10-17T04:01:21;9.90;;;4.43;;
20008;SDS011;10165;42.662;23.260;2022-10-17T04:03:49;4.77;;;4.10;;
20008;SDS011;10165;42.662;23.260;2022-10-17T04:06:17;6.07;;;3.83;;
20008;SDS011;10165;42.662;23.260;2022-10-17T04:08:44;7.07;;;4.43;;
20008;SDS011;10165;42.662;23.260;2022-10-17T04:11:13;7.50;;;4.60;;
20008;SDS011;10165;42.662;23.260;2022-10-17T04:13:43;7.63;;;5.27;;
20008;SDS011;10165;42.662;23.260;2022-10-17T04:16:11;7.83;;;4.60;;
20008;SDS011;10165;42.662;23.260;2022-10-17T04:18:40;8.50;;;4.27;;
20008;SDS011;10165;42.662;23.260;2022-10-17T04:21:07;7.77;;;4.87;;
20008;SDS011;10165;42.662;23.260;2022-10-17T04:23:34;6.90;;;5.70;;
20008;SDS011;10165;42.662;23.260;2022-10-17T04:26:01;11.57;;;7.80;;
20008;SDS011;10165;42.662;23.260;2022-10-17T04:28:29;12.63;;;6.90;;
20008;SDS011;10165;42.662;23.260;2022-10-17T04:30:57;9.87;;;7.20;;
20008;SDS011;10165;42.662;23.260;2022-10-17T04:33:24;10.60;;;6.53;;
20008;SDS011;10165;42.662;23.260;2022-10-17T04:35:57;7.90;;;5.90;;
20008;SDS011;10165;42.662;23.260;2022-10-17T04:38:24;10.40;;;6.57;;
20008;SDS011;10165;42.662;23.260;2022-10-17T04:40:55;11.83;;;6.37;;
20008;SDS011;10165;42.662;23.260;2022-10-17T04:43:23;9.10;;;5.70;;
20008;SDS011;10165;42.662;23.260;2022-10-17T04:45:50;6.07;;;4.80;;
20008;SDS011;10165;42.662;23.260;2022-10-17T04:48:16;7.27;;;4.93;;
20008;SDS011;10165;42.662;23.260;2022-10-17T04:50:52;7.17;;;4.70;;
20008;SDS011;10165;42.662;23.260;2022-10-17T04:53:22;7.27;;;4.83;;
20008;SDS011;10165;42.662;23.260;2022-10-17T04:55:50;10.40;;;4.73;;
20008;SDS011;10165;42.662;23.260;2022-10-17T04:58:16;7.30;;;4.43;;
20008;SDS011;10165;42.662;23.260;2022-10-17T05:00:43;6.70;;;5.13;;
20008;SDS011;10165;42.662;23.260;2022-10-17T05:03:10;12.50;;;5.90;;
20008;SDS011;10165;42.662;23.260;2022-10-17T05:05:37;7.83;;;5.33;;
20008;SDS011;10165;42.662;23.260;2022-10-17T05:08:04;10.20;;;5.30;;
20008;SDS011;10165;42.662;23.260;2022-10-17T05:10:39;15.60;;;6.00;;
20008;SDS011;10165;42.662;23.260;2022-10-17T05:13:07;10.93;;;5.63;;
20008;SDS011;10165;42.662;23.260;2022-10-17T05:15:34;9.30;;;4.90;;
20008;SDS011;10165;42.662;23.260;2022-10-17T05:18:01;9.47;;;5.10;;
20008;SDS011;10165;42.662;23.260;2022-10-17T05:20:29;9.90;;;6.00;;
20008;SDS011;10165;42.662;23.260;2022-10-17T05:22:59;13.63;;;5.57;;
20008;SDS011;10165;42.662;23.260;2022-10-17T05:25:26;12.67;;;6.47;;
20008;SDS011;10165;42.662;23.260;2022-10-17T05:27:53;9.47;;;6.07;;
20008;SDS011;10165;42.662;23.260;2022-10-17T05:30:20;8.53;;;5.47;;
20008;SDS011;10165;42.662;23.260;2022-10-17T05:32:46;14.40;;;5.97;;
20008;SDS011;10165;42.662;23.260;2022-10-17T05:35:13;17.47;;;7.57;;
20008;SDS011;10165;42.662;23.260;2022-10-17T05:37:40;10.60;;;5.60;;
20008;SDS011;10165;42.662;23.260;2022-10-17T05:40:06;13.33;;;5.67;;
20008;SDS011;10165;42.662;23.260;2022-10-17T05:42:33;10.03;;;5.27;;
20008;SDS011;10165;42.662;23.260;2022-10-17T05:45:00;11.03;;;5.90;;
20008;SDS011;10165;42.662;23.260;2022-10-17T05:47:27;9.17;;;6.17;;
20008;SDS011;10165;42.662;23.260;2022-10-17T05:49:54;17.03;;;6.80;;
20008;SDS011;10165;42.662;23.260;2022-10-17T05:52:21;9.07;;;5.80;;
20008;SDS011;10165;42.662;23.260;2022-10-17T05:54:47;17.87;;;6.63;;
20008;SDS011;10165;42.662;23.260;2022-10-17T05:57:14;10.00;;;7.03;;
20008;SDS011;10165;42.662;23.260;2022-10-17T05:59:40;6.93;;;5.17;;
20008;SDS011;10165;42.662;23.260;2022-10-17T06:02:08;12.07;;;6.70;;
20008;SDS011;10165;42.662;23.260;2022-10-17T06:04:37;11.73;;;6.37;;
20008;SDS011;10165;42.662;23.260;2022-10-17T06:07:06;15.00;;;6.87;;
20008;SDS011;10165;42.662;23.260;2022-10-17T06:09:32;12.83;;;5.90;;
20008;SDS011;10165;42.662;23.260;2022-10-17T06:11:59;13.57;;;6.83;;
20008;SDS011;10165;42.662;23.260;2022-10-17T06:14:26;13.30;;;7.47;;
20008;SDS011;10165;42.662;23.260;2022-10-17T06:16:52;11.10;;;7.07;;
20008;SDS011;10165;42.662;23.260;2022-10-17T06:19:19;10.30;;;7.23;;
20008;SDS011;10165;42.662;23.260;2022-10-17T06:21:46;14.87;;;8.23;;
20008;SDS011;10165;42.662;23.260;2022-10-17T06:24:12;14.43;;;8.17;;
20008;SDS011;10165;42.662;23.260;2022-10-17T06:26:39;9.77;;;7.10;;
20008;SDS011;10165;42.662;23.260;2022-10-17T06:29:06;14.10;;;7.37;;
20008;SDS011;10165;42.662;23.260;2022-10-17T06:31:32;14.70;;;8.13;;
20008;SDS011;10165;42.662;23.260;2022-10-17T06:33:59;13.30;;;7.60;;
20008;SDS011;10165;42.662;23.260;2022-10-17T06:36:26;11.27;;;7.33;;
20008;SDS011;10165;42.662;23.260;2022-10-17T06:38:52;17.00;;;7.40;;
20008;SDS011;10165;42.662;23.260;2022-10-17T06:41:19;11.87;;;6.90;;
20008;SDS011;10165;42.662;23.260;2022-10-17T06:43:46;13.03;;;7.67;;
20008;SDS011;10165;42.662;23.260;2022-10-17T06:46:13;18.23;;;8.33;;
20008;SDS011;10165;42.662;23.260;2022-10-17T06:48:41;15.33;;;6.80;;
20008;SDS011;10165;42.662;23.260;2022-10-17T06:51:11;12.23;;;8.10;;
20008;SDS011;10165;42.662;23.260;2022-10-17T06:53:38;10.37;;;7.20;;
20008;SDS011;10165;42.662;23.260;2022-10-17T06:56:06;13.60;;;7.50;;
20008;SDS011;10165;42.662;23.260;2022-10-17T06:58:35;19.47;;;9.80;;
20008;SDS011;10165;42.662;23.260;2022-10-17T07:01:07;15.73;;;8.30;;
20008;SDS011;10165;42.662;23.260;2022-10-17T07:03:35;15.80;;;8.33;;
20008;SDS011;10165;42.662;23.260;2022-10-17T07:06:02;17.23;;;9.27;;
20008;SDS011;10165;42.662;23.260;2022-10-17T07:08:29;11.90;;;8.50;;
20008;SDS011;10165;42.662;23.260;2022-10-17T07:10:56;14.00;;;9.57;;
20008;SDS011;10165;42.662;23.260;2022-10-17T07:13:23;19.07;;;9.27;;
20008;SDS011;10165;42.662;23.260;2022-10-17T07:15:50;16.40;;;7.80;;
20008;SDS011;10165;42.662;23.260;2022-10-17T07:18:17;14.33;;;7.90;;
20008;SDS011;10165;42.662;23.260;2022-10-17T07:20:51;13.27;;;8.37;;
20008;SDS011;10165;42.662;23.260;2022-10-17T07:23:18;13.33;;;8.47;;
20008;SDS011;10165;42.662;23.260;2022-10-17T07:25:45;13.73;;;9.87;;
20008;SDS011;10165;42.662;23.260;2022-10-17T07:28:12;17.83;;;9.57;;
20008;SDS011;10165;42.662;23.260;2022-10-17T07:30:40;23.40;;;9.53;;
20008;SDS011;10165;42.662;23.260;2022-10-17T07:33:06;14.27;;;8.60;;
20008;SDS011;10165;42.662;23.260;2022-10-17T07:35:33;18.73;;;10.13;;
20008;SDS011;10165;42.662;23.260;2022-10-17T07:38:00;21.03;;;10.13;;
20008;SDS011;10165;42.662;23.260;2022-10-17T07:40:26;27.90;;;11.40;;
20008;SDS011;10165;42.662;23.260;2022-10-17T07:42:53;17.90;;;12.17;;
20008;SDS011;10165;42.662;23.260;2022-10-17T07:45:21;20.93;;;11.53;;
20008;SDS011;10165;42.662;23.260;2022-10-17T07:47:49;15.17;;;10.47;;
20008;SDS011;10165;42.662;23.260;2022-10-17T07:50:15;20.33;;;9.90;;
20008;SDS011;10165;42.662;23.260;2022-10-17T07:52:42;18.30;;;10.37;;
20008;SDS011;10165;42.662;23.260;2022-10-17T07:55:09;18.47;;;9.67;;
20008;SDS011;10165;42.662;23.260;2022-10-17T07:57:35;18.40;;;9.73;;
20008;SDS011;10165;42.662;23.260;2022-10-17T08:00:02;19.83;;;10.33;;
20008;SDS011;10165;42.662;23.260;2022-10-17T08:02:30;16.43;;;8.73;;
20008;SDS011;10165;42.662;23.260;2022-10-17T08:04:57;14.90;;;8.73;;
20008;SDS011;10165;42.662;23.260;2022-10-17T08:07:24;26.00;;;9.23;;
20008;SDS011;10165;42.662;23.260;2022-10-17T08:09:54;24.60;;;10.43;;
20008;SDS011;10165;42.662;23.260;2022-10-17T08:12:21;18.47;;;9.40;;
20008;SDS011;10165;42.662;23.260;2022-10-17T08:14:49;13.97;;;7.83;;
20008;SDS011;10165;42.662;23.260;2022-10-17T08:17:16;10.47;;;7.87;;
20008;SDS011;10165;42.662;23.260;2022-10-17T08:19:42;13.60;;;8.27;;
20008;SDS011;10165;42.662;23.260;2022-10-17T08:22:09;12.90;;;7.43;;
20008;SDS011;10165;42.662;23.260;2022-10-17T08:24:35;9.77;;;7.33;;
20008;SDS011;10165;42.662;23.260;2022-10-17T08:27:02;12.13;;;7.17;;
20008;SDS011;10165;42.662;23.260;2022-10-17T08:29:36;11.47;;;6.77;;
20008;SDS011;10165;42.662;23.260;2022-10-17T08:32:04;15.17;;;8.07;;
20008;SDS011;10165;42.662;23.260;2022-10-17T08:34:35;17.03;;;7.90;;
20008;SDS011;10165;42.662;23.260;2022-10-17T08:37:01;10.23;;;6.53;;
20008;SDS011;10165;42.662;23.260;2022-10-17T08:39:28;11.40;;;6.27;;
20008;SDS011;10165;42.662;23.260;2022-10-17T08:47:28;14.87;;;7.07;;
20008;SDS011;10165;42.662;23.260;2022-10-17T08:50:02;14.67;;;7.23;;
20008;SDS011;10165;42.662;23.260;2022-10-17T08:52:34;10.73;;;6.60;;
20008;SDS011;10165;42.662;23.260;2022-10-17T08:57:59;11.63;;;6.80;;
20008;SDS011;10165;42.662;23.260;2022-10-17T09:00:25;13.03;;;6.73;;
20008;SDS011;10165;42.662;23.260;2022-10-17T09:03:04;15.37;;;8.43;;
20008;SDS011;10165;42.662;23.260;2022-10-17T09:05:45;17.20;;;8.13;;
20008;SDS011;10165;42.662;23.260;2022-10-17T09:17:18;14.90;;;8.20;;
20008;SDS011;10165;42.662;23.260;2022-10-17T09:20:09;16.30;;;8.90;;
20008;SDS011;10165;42.662;23.260;2022-10-17T09:22:47;12.63;;;8.40;;
20008;SDS011;10165;42.662;23.260;2022-10-17T09:25:22;13.20;;;8.73;;
20008;SDS011;10165;42.662;23.260;2022-10-17T09:28:01;18.67;;;9.53;;
20008;SDS011;10165;42.662;23.260;2022-10-17T09:30:41;15.00;;;9.07;;
20008;SDS011;10165;42.662;23.260;2022-10-17T09:33:16;17.77;;;7.57;;
20008;SDS011;10165;42.662;23.260;2022-10-17T09:36:01;13.53;;;8.03;;
20008;SDS011;10165;42.662;23.260;2022-10-17T09:38:57;15.27;;;8.60;;
20008;SDS011;10165;42.662;23.260;2022-10-17T09:49:22;9.63;;;5.33;;
20008;SDS011;10165;42.662;23.260;2022-10-17T09:52:01;11.93;;;5.03;;
20008;SDS011;10165;42.662;23.260;2022-10-17T09:54:38;10.13;;;4.80;;
20008;SDS011;10165;42.662;23.260;2022-10-17T09:57:06;8.83;;;6.17;;
20008;SDS011;10165;42.662;23.260;2022-10-17T10:02:23;6.87;;;4.80;;
20008;SDS011;10165;42.662;23.260;2022-10-17T10:07:34;7.37;;;4.60;;
20008;SDS011;10165;42.662;23.260;2022-10-17T10:10:05;6.23;;;4.07;;
20008;SDS011;10165;42.662;23.260;2022-10-17T10:13:00;6.20;;;3.40;;
20008;SDS011;10165;42.662;23.260;2022-10-17T10:15:40;5.63;;;3.73;;
20008;SDS011;10165;42.662;23.260;2022-10-17T10:24:11;2.90;;;2.50;;
20008;SDS011;10165;42.662;23.260;2022-10-17T10:29:20;4.67;;;3.03;;
20008;SDS011;10165;42.662;23.260;2022-10-17T10:31:51;8.00;;;2.87;;
20008;SDS011;10165;42.662;23.260;2022-10-17T10:34:23;4.40;;;2.70;;
20008;SDS011;10165;42.662;23.260;2022-10-17T10:36:56;2.67;;;2.30;;
20008;SDS011;10165;42.662;23.260;2022-10-17T10:39:31;9.13;;;2.30;;
20008;SDS011;10165;42.662;23.260;2022-10-17T10:42:02;2.17;;;1.87;;
20008;SDS011;10165;42.662;23.260;2022-10-17T10:44:31;4.23;;;2.40;;
20008;SDS011;10165;42.662;23.260;2022-10-17T10:49:44;5.43;;;2.43;;
20008;SDS011;10165;42.662;23.260;2022-10-17T10:52:46;2.23;;;2.03;;
20008;SDS011;10165;42.662;23.260;2022-10-17T10:57:58;2.93;;;2.07;;
20008;SDS011;10165;42.662;23.260;2022-10-17T11:00:30;2.70;;;2.10;;
20008;SDS011;10165;42.662;23.260;2022-10-17T11:13:41;2.23;;;1.87;;
20008;SDS011;10165;42.662;23.260;2022-10-17T11:16:27;4.27;;;2.10;;
20008;SDS011;10165;42.662;23.260;2022-10-17T11:19:16;2.47;;;2.20;;
20008;SDS011;10165;42.662;23.260;2022-10-17T11:21:59;2.90;;;1.80;;
20008;SDS011;10165;42.662;23.260;2022-10-17T11:24:29;3.37;;;1.70;;
20008;SDS011;10165;42.662;23.260;2022-10-17T11:27:03;2.47;;;2.00;;
20008;SDS011;10165;42.662;23.260;2022-10-17T11:29:32;3.13;;;1.60;;
20008;SDS011;10165;42.662;23.260;2022-10-17T11:32:08;3.20;;;1.70;;
20008;SDS011;10165;42.662;23.260;2022-10-17T11:34:40;1.97;;;1.70;;
20008;SDS011;10165;42.662;23.260;2022-10-17T11:37:13;2.63;;;1.97;;
20008;SDS011;10165;42.662;23.260;2022-10-17T11:39:55;4.83;;;2.00;;
20008;SDS011;10165;42.662;23.260;2022-10-17T11:42:34;2.77;;;2.30;;
20008;SDS011;10165;42.662;23.260;2022-10-17T11:45:12;2.97;;;1.80;;
20008;SDS011;10165;42.662;23.260;2022-10-17T11:47:43;2.73;;;2.00;;
20008;SDS011;10165;42.662;23.260;2022-10-17T11:50:33;5.27;;;1.87;;
20008;SDS011;10165;42.662;23.260;2022-10-17T11:53:27;2.07;;;1.80;;
20008;SDS011;10165;42.662;23.260;2022-10-17T11:55:57;2.30;;;2.00;;
20008;SDS011;10165;42.662;23.260;2022-10-17T12:01:22;6.17;;;2.17;;
20008;SDS011;10165;42.662;23.260;2022-10-17T12:04:16;5.90;;;2.00;;
20008;SDS011;10165;42.662;23.260;2022-10-17T12:07:08;2.80;;;2.00;;
20008;SDS011;10165;42.662;23.260;2022-10-17T12:12:42;2.20;;;1.93;;
20008;SDS011;10165;42.662;23.260;2022-10-17T12:17:39;3.57;;;1.73;;
20008;SDS011;10165;42.662;23.260;2022-10-17T12:22:47;3.03;;;1.90;;
20008;SDS011;10165;42.662;23.260;2022-10-17T12:25:33;4.53;;;2.70;;
20008;SDS011;10165;42.662;23.260;2022-10-17T12:30:57;4.13;;;2.27;;
20008;SDS011;10165;42.662;23.260;2022-10-17T12:49:20;9.57;;;2.30;;
20008;SDS011;10165;42.662;23.260;2022-10-17T12:54:52;2.40;;;2.13;;
20008;SDS011;10165;42.662;23.260;2022-10-17T12:57:52;3.73;;;2.33;;
20008;SDS011;10165;42.662;23.260;2022-10-17T13:03:11;5.60;;;2.47;;
20008;SDS011;10165;42.662;23.260;2022-10-17T13:05:46;3.13;;;2.57;;
20008;SDS011;10165;42.662;23.260;2022-10-17T13:08:20;4.23;;;2.30;;
20008;SDS011;10165;42.662;23.260;2022-10-17T13:10:50;6.27;;;2.77;;
20008;SDS011;10165;42.662;23.260;2022-10-17T13:16:06;3.30;;;2.30;;
20008;SDS011;10165;42.662;23.260;2022-10-17T13:18:33;3.80;;;2.30;;
20008;SDS011;10165;42.662;23.260;2022-10-17T13:21:13;5.57;;;2.70;;
20008;SDS011;10165;42.662;23.260;2022-10-17T13:23:43;4.50;;;2.53;;
20008;SDS011;10165;42.662;23.260;2022-10-17T13:26:17;3.07;;;2.47;;
20008;SDS011;10165;42.662;23.260;2022-10-17T13:28:59;5.10;;;2.17;;
20008;SDS011;10165;42.662;23.260;2022-10-17T13:31:33;5.03;;;2.30;;
20008;SDS011;10165;42.662;23.260;2022-10-17T13:34:02;4.90;;;2.67;;
20008;SDS011;10165;42.662;23.260;2022-10-17T13:36:31;8.23;;;2.47;;
20008;SDS011;10165;42.662;23.260;2022-10-17T13:39:04;3.23;;;2.53;;
20008;SDS011;10165;42.662;23.260;2022-10-17T13:41:40;4.23;;;2.73;;
20008;SDS011;10165;42.662;23.260;2022-10-17T13:44:10;3.53;;;1.87;;
20008;SDS011;10165;42.662;23.260;2022-10-17T13:46:40;3.57;;;2.47;;
20008;SDS011;10165;42.662;23.260;2022-10-17T13:51:50;4.03;;;2.30;;
20008;SDS011;10165;42.662;23.260;2022-10-17T13:56:55;3.73;;;2.23;;
20008;SDS011;10165;42.662;23.260;2022-10-17T13:59:24;3.97;;;2.30;;
20008;SDS011;10165;42.662;23.260;2022-10-17T14:01:53;3.00;;;2.33;;
20008;SDS011;10165;42.662;23.260;2022-10-17T14:04:21;3.83;;;2.00;;
20008;SDS011;10165;42.662;23.260;2022-10-17T14:06:47;2.50;;;2.07;;
20008;SDS011;10165;42.662;23.260;2022-10-17T14:09:21;5.23;;;2.37;;
20008;SDS011;10165;42.662;23.260;2022-10-17T14:14:26;3.40;;;2.50;;
20008;SDS011;10165;42.662;23.260;2022-10-17T14:16:55;4.80;;;2.03;;
20008;SDS011;10165;42.662;23.260;2022-10-17T14:24:48;5.30;;;2.20;;
20008;SDS011;10165;42.662;23.260;2022-10-17T14:30:05;5.57;;;2.20;;
20008;SDS011;10165;42.662;23.260;2022-10-17T14:33:17;4.63;;;2.57;;
20008;SDS011;10165;42.662;23.260;2022-10-17T14:36:02;6.83;;;3.13;;
20008;SDS011;10165;42.662;23.260;2022-10-17T14:38:30;5.40;;;2.70;;
20008;SDS011;10165;42.662;23.260;2022-10-17T14:43:52;3.70;;;2.53;;
20008;SDS011;10165;42.662;23.260;2022-10-17T14:46:21;3.73;;;2.90;;
20008;SDS011;10165;42.662;23.260;2022-10-17T14:48:54;3.07;;;2.43;;
20008;SDS011;10165;42.662;23.260;2022-10-17T14:51:24;5.30;;;2.53;;
20008;SDS011;10165;42.662;23.260;2022-10-17T14:54:04;5.60;;;2.77;;
20008;SDS011;10165;42.662;23.260;2022-10-17T14:56:48;3.57;;;2.87;;
20008;SDS011;10165;42.662;23.260;2022-10-17T14:59:17;4.00;;;2.47;;
20008;SDS011;10165;42.662;23.260;2022-10-17T15:02:10;2.93;;;2.33;;
20008;SDS011;10165;42.662;23.260;2022-10-17T15:04:37;23.43;;;8.97;;
20008;SDS011;10165;42.662;23.260;2022-10-17T15:07:03;18.63;;;10.30;;
20008;SDS011;10165;42.662;23.260;2022-10-17T15:09:30;13.77;;;8.23;;
20008;SDS011;10165;42.662;23.260;2022-10-17T15:12:01;11.23;;;6.20;;
20008;SDS011;10165;42.662;23.260;2022-10-17T15:14:29;9.30;;;4.53;;
20008;SDS011;10165;42.662;23.260;2022-10-17T15:16:55;8.67;;;2.73;;
20008;SDS011;10165;42.662;23.260;2022-10-17T15:19:22;5.90;;;2.67;;
20008;SDS011;10165;42.662;23.260;2022-10-17T15:21:49;7.00;;;2.70;;
20008;SDS011;10165;42.662;23.260;2022-10-17T15:24:15;3.67;;;2.60;;
20008;SDS011;10165;42.662;23.260;2022-10-17T15:26:42;4.93;;;2.67;;
20008;SDS011;10165;42.662;23.260;2022-10-17T15:29:13;5.87;;;3.13;;
20008;SDS011;10165;42.662;23.260;2022-10-17T15:31:45;6.93;;;4.10;;
20008;SDS011;10165;42.662;23.260;2022-10-17T15:34:17;10.83;;;4.00;;
20008;SDS011;10165;42.662;23.260;2022-10-17T15:36:50;7.43;;;3.70;;
20008;SDS011;10165;42.662;23.260;2022-10-17T15:39:17;7.13;;;3.70;;
20008;SDS011;10165;42.662;23.260;2022-10-17T15:41:44;5.33;;;3.07;;
20008;SDS011;10165;42.662;23.260;2022-10-17T15:44:13;5.30;;;3.30;;
20008;SDS011;10165;42.662;23.260;2022-10-17T15:46:40;5.03;;;3.03;;
20008;SDS011;10165;42.662;23.260;2022-10-17T15:49:13;7.53;;;3.17;;
20008;SDS011;10165;42.662;23.260;2022-10-17T15:51:42;8.67;;;3.10;;
20008;SDS011;10165;42.662;23.260;2022-10-17T15:54:10;9.50;;;3.50;;
20008;SDS011;10165;42.662;23.260;2022-10-17T15:56:41;6.80;;;3.20;;
20008;SDS011;10165;42.662;23.260;2022-10-17T15:59:14;5.30;;;3.40;;
20008;SDS011;10165;42.662;23.260;2022-10-17T16:01:46;5.70;;;3.03;;
20008;SDS011;10165;42.662;23.260;2022-10-17T16:04:13;6.60;;;3.60;;
20008;SDS011;10165;42.662;23.260;2022-10-17T16:06:41;12.00;;;4.10;;
20008;SDS011;10165;42.662;23.260;2022-10-17T16:09:08;5.50;;;3.90;;
20008;SDS011;10165;42.662;23.260;2022-10-17T16:11:42;6.33;;;3.87;;
20008;SDS011;10165;42.662;23.260;2022-10-17T16:14:13;8.50;;;4.43;;
20008;SDS011;10165;42.662;23.260;2022-10-17T16:16:42;11.97;;;4.57;;
20008;SDS011;10165;42.662;23.260;2022-10-17T16:19:08;10.73;;;4.17;;
20008;SDS011;10165;42.662;23.260;2022-10-17T16:21:36;12.03;;;4.90;;
20008;SDS011;10165;42.662;23.260;2022-10-17T16:24:05;13.20;;;4.57;;
20008;SDS011;10165;42.662;23.260;2022-10-17T16:26:31;8.07;;;4.13;;
20008;SDS011;10165;42.662;23.260;2022-10-17T16:28:58;12.87;;;3.67;;
20008;SDS011;10165;42.662;23.260;2022-10-17T16:31:40;7.93;;;4.07;;
20008;SDS011;10165;42.662;23.260;2022-10-17T16:34:10;7.33;;;4.33;;
20008;SDS011;10165;42.662;23.260;2022-10-17T16:36:39;6.23;;;4.10;;
20008;SDS011;10165;42.662;23.260;2022-10-17T16:39:06;4.97;;;4.13;;
20008;SDS011;10165;42.662;23.260;2022-10-17T16:41:34;5.43;;;3.80;;
20008;SDS011;10165;42.662;23.260;2022-10-17T16:44:03;9.27;;;4.17;;
20008;SDS011;10165;42.662;23.260;2022-10-17T16:46:32;9.43;;;4.30;;
20008;SDS011;10165;42.662;23.260;2022-10-17T16:49:01;8.37;;;4.20;;
20008;SDS011;10165;42.662;23.260;2022-10-17T16:51:31;11.97;;;4.40;;
20008;SDS011;10165;42.662;23.260;2022-10-17T16:54:02;7.87;;;4.77;;
20008;SDS011;10165;42.662;23.260;2022-10-17T16:56:29;10.53;;;5.27;;
20008;SDS011;10165;42.662;23.260;2022-10-17T16:58:58;11.33;;;5.73;;
20008;SDS011;10165;42.662;23.260;2022-10-17T17:01:26;11.80;;;5.77;;
20008;SDS011;10165;42.662;23.260;2022-10-17T17:03:56;14.07;;;6.27;;
20008;SDS011;10165;42.662;23.260;2022-10-17T17:06:23;12.70;;;7.33;;
20008;SDS011;10165;42.662;23.260;2022-10-17T17:08:53;18.40;;;8.10;;
20008;SDS011;10165;42.662;23.260;2022-10-17T17:11:21;18.60;;;8.53;;
20008;SDS011;10165;42.662;23.260;2022-10-17T17:13:49;13.53;;;6.40;;
20008;SDS011;10165;42.662;23.260;2022-10-17T17:16:17;10.83;;;5.83;;
20008;SDS011;10165;42.662;23.260;2022-10-17T17:18:59;10.43;;;5.57;;
20008;SDS011;10165;42.662;23.260;2022-10-17T17:21:28;14.20;;;6.17;;